<?xml version="1.0" encoding="UTF-8" standalone="no" ?>
<gpx xmlns="http://www.topografix.com/GPX/1/1" xmlns:xsi="http://www.w3.org/2001/XMLSchema-instance" xsi:schemaLocation="http://www.topografix.com/GPX/1/1 http://www.topografix.com/GPX/1/1/gpx.xsd" version="1.1" creator="VisuGPX - https://www.visugpx.com">
  <metadata>
    <name>En forêt de Mervent le long de la Vendée</name>
    <desc><![CDATA[Après la découverte de la Forêt Domaniale de Mervent, un circuit moins connu mais un peu plus sauvage le long de la retenue du barrage de Mervent. Partons à la découverte des rives de la Vendée en passant par la Fontaine à l'Ermite, la Balingue et le site de Sauvaget]]></desc>
  </metadata>
  <wpt lat="46.51245" lon="-0.79256">
    <ele>80</ele>
    <name><![CDATA[Rond-point de Saint-Luc]]></name>
  </wpt>
  <wpt lat="46.51446" lon="-0.78009">
    <ele>70</ele>
    <name><![CDATA[Chemin à gauche]]></name>
  </wpt>
  <wpt lat="46.51642" lon="-0.77233">
    <ele>48</ele>
    <name><![CDATA[Presqu'île]]></name>
  </wpt>
  <wpt lat="46.51953" lon="-0.75781">
    <ele>45</ele>
    <name><![CDATA[Confluence Vendée et]]></name>
  </wpt>
  <wpt lat="46.50341" lon="-0.74684">
    <ele>49</ele>
    <name><![CDATA[Pont de Perrure]]></name>
  </wpt>
  <wpt lat="46.50239" lon="-0.74942">
    <ele>59</ele>
    <name><![CDATA[Fontaine à l'Ermite.]]></name>
  </wpt>
  <wpt lat="46.49932" lon="-0.75871">
    <ele>92</ele>
    <name><![CDATA[Croisement de sentier]]></name>
  </wpt>
  <wpt lat="46.49668" lon="-0.76041">
    <ele>103</ele>
    <name><![CDATA[Carrefour de La Balingue]]></name>
  </wpt>
  <wpt lat="46.48908" lon="-0.76228">
    <ele>81</ele>
    <name><![CDATA[Chemin à droite, clôture en ruine]]></name>
  </wpt>
  <wpt lat="46.49298" lon="-0.76566">
    <ele>81</ele>
    <name><![CDATA[D65]]></name>
  </wpt>
  <wpt lat="46.49629" lon="-0.77421">
    <ele>80</ele>
    <name><![CDATA[Route forestière]]></name>
  </wpt>
  <wpt lat="46.49435" lon="-0.78196">
    <ele>74</ele>
    <name><![CDATA[Chemin à droite avant les maisons]]></name>
  </wpt>
  <wpt lat="46.49966" lon="-0.78353">
    <ele>38</ele>
    <name><![CDATA[Passerelle de Sauvaget]]></name>
  </wpt>
  <wpt lat="46.5001" lon="-0.79515">
    <ele>21</ele>
    <name><![CDATA[Parking, chemin à droite]]></name>
  </wpt>
  <wpt lat="46.50329" lon="-0.79562">
    <ele>69</ele>
    <name><![CDATA[Saint-Luc]]></name>
  </wpt>
  <wpt lat="46.51248" lon="-0.79253">
    <ele>80</ele>
    <name><![CDATA[Rond-point de Saint-Luc]]></name>
  </wpt>
  <trk>
    <name><![CDATA[En forêt de Mervent le long de la Vendée]]></name>
    <trkseg>
      <trkpt lat="46.51245" lon="-0.79256">
        <ele>80</ele>
        <time>2021-05-20T16:19:01+02:00</time>
      </trkpt>
      <trkpt lat="46.51204" lon="-0.79157">
        <ele>82</ele>
        <time>2021-05-20T16:19:06+02:00</time>
      </trkpt>
      <trkpt lat="46.51159" lon="-0.79063">
        <ele>85</ele>
        <time>2021-05-20T16:19:11+02:00</time>
      </trkpt>
      <trkpt lat="46.51116" lon="-0.78966">
        <ele>86</ele>
        <time>2021-05-20T16:19:16+02:00</time>
      </trkpt>
      <trkpt lat="46.51098" lon="-0.78916">
        <ele>88</ele>
        <time>2021-05-20T16:19:21+02:00</time>
      </trkpt>
      <trkpt lat="46.51087" lon="-0.78865">
        <ele>87</ele>
        <time>2021-05-20T16:19:26+02:00</time>
      </trkpt>
      <trkpt lat="46.5108" lon="-0.78779">
        <ele>87</ele>
        <time>2021-05-20T16:19:31+02:00</time>
      </trkpt>
      <trkpt lat="46.51082" lon="-0.7863">
        <ele>82</ele>
        <time>2021-05-20T16:19:36+02:00</time>
      </trkpt>
      <trkpt lat="46.51089" lon="-0.78599">
        <ele>80</ele>
        <time>2021-05-20T16:19:41+02:00</time>
      </trkpt>
      <trkpt lat="46.51135" lon="-0.78531">
        <ele>77</ele>
        <time>2021-05-20T16:19:46+02:00</time>
      </trkpt>
      <trkpt lat="46.51134" lon="-0.78509">
        <ele>76</ele>
        <time>2021-05-20T16:19:51+02:00</time>
      </trkpt>
      <trkpt lat="46.51081" lon="-0.78414">
        <ele>65</ele>
        <time>2021-05-20T16:19:56+02:00</time>
      </trkpt>
      <trkpt lat="46.51034" lon="-0.78318">
        <ele>53</ele>
        <time>2021-05-20T16:20:01+02:00</time>
      </trkpt>
      <trkpt lat="46.51036" lon="-0.78272">
        <ele>44</ele>
        <time>2021-05-20T16:20:06+02:00</time>
      </trkpt>
      <trkpt lat="46.51039" lon="-0.78235">
        <ele>38</ele>
        <time>2021-05-20T16:20:11+02:00</time>
      </trkpt>
      <trkpt lat="46.51052" lon="-0.78213">
        <ele>35</ele>
        <time>2021-05-20T16:20:16+02:00</time>
      </trkpt>
      <trkpt lat="46.51072" lon="-0.78199">
        <ele>34</ele>
        <time>2021-05-20T16:20:21+02:00</time>
      </trkpt>
      <trkpt lat="46.51106" lon="-0.782">
        <ele>35</ele>
        <time>2021-05-20T16:20:26+02:00</time>
      </trkpt>
      <trkpt lat="46.51148" lon="-0.78212">
        <ele>38</ele>
        <time>2021-05-20T16:20:31+02:00</time>
      </trkpt>
      <trkpt lat="46.51225" lon="-0.78245">
        <ele>39</ele>
        <time>2021-05-20T16:20:36+02:00</time>
      </trkpt>
      <trkpt lat="46.51247" lon="-0.78242">
        <ele>35</ele>
        <time>2021-05-20T16:20:41+02:00</time>
      </trkpt>
      <trkpt lat="46.51264" lon="-0.78222">
        <ele>33</ele>
        <time>2021-05-20T16:20:46+02:00</time>
      </trkpt>
      <trkpt lat="46.51277" lon="-0.78199">
        <ele>30</ele>
        <time>2021-05-20T16:20:51+02:00</time>
      </trkpt>
      <trkpt lat="46.51283" lon="-0.78175">
        <ele>27</ele>
        <time>2021-05-20T16:20:56+02:00</time>
      </trkpt>
      <trkpt lat="46.51281" lon="-0.78133">
        <ele>34</ele>
        <time>2021-05-20T16:21:01+02:00</time>
      </trkpt>
      <trkpt lat="46.51272" lon="-0.78105">
        <ele>41</ele>
        <time>2021-05-20T16:21:06+02:00</time>
      </trkpt>
      <trkpt lat="46.51278" lon="-0.78097">
        <ele>44</ele>
        <time>2021-05-20T16:21:11+02:00</time>
      </trkpt>
      <trkpt lat="46.51293" lon="-0.78097">
        <ele>45</ele>
        <time>2021-05-20T16:21:16+02:00</time>
      </trkpt>
      <trkpt lat="46.51334" lon="-0.78096">
        <ele>48</ele>
        <time>2021-05-20T16:21:21+02:00</time>
      </trkpt>
      <trkpt lat="46.51354" lon="-0.78044">
        <ele>60</ele>
        <time>2021-05-20T16:21:26+02:00</time>
      </trkpt>
      <trkpt lat="46.51361" lon="-0.78021">
        <ele>64</ele>
        <time>2021-05-20T16:21:31+02:00</time>
      </trkpt>
      <trkpt lat="46.51376" lon="-0.78018">
        <ele>65</ele>
        <time>2021-05-20T16:21:36+02:00</time>
      </trkpt>
      <trkpt lat="46.51402" lon="-0.78045">
        <ele>63</ele>
        <time>2021-05-20T16:21:41+02:00</time>
      </trkpt>
      <trkpt lat="46.51417" lon="-0.78046">
        <ele>64</ele>
        <time>2021-05-20T16:21:46+02:00</time>
      </trkpt>
      <trkpt lat="46.51439" lon="-0.78034">
        <ele>67</ele>
        <time>2021-05-20T16:21:51+02:00</time>
      </trkpt>
      <trkpt lat="46.51446" lon="-0.78009">
        <ele>70</ele>
        <time>2021-05-20T16:21:56+02:00</time>
      </trkpt>
      <trkpt lat="46.51512" lon="-0.78219">
        <ele>46</ele>
        <time>2021-05-20T16:22:01+02:00</time>
      </trkpt>
      <trkpt lat="46.5157" lon="-0.78199">
        <ele>49</ele>
        <time>2021-05-20T16:22:06+02:00</time>
      </trkpt>
      <trkpt lat="46.51608" lon="-0.78182">
        <ele>48</ele>
        <time>2021-05-20T16:22:11+02:00</time>
      </trkpt>
      <trkpt lat="46.51648" lon="-0.78151">
        <ele>46</ele>
        <time>2021-05-20T16:22:16+02:00</time>
      </trkpt>
      <trkpt lat="46.51712" lon="-0.78092">
        <ele>47</ele>
        <time>2021-05-20T16:22:21+02:00</time>
      </trkpt>
      <trkpt lat="46.51756" lon="-0.7804">
        <ele>48</ele>
        <time>2021-05-20T16:22:26+02:00</time>
      </trkpt>
      <trkpt lat="46.51794" lon="-0.77983">
        <ele>48</ele>
        <time>2021-05-20T16:22:31+02:00</time>
      </trkpt>
      <trkpt lat="46.51781" lon="-0.77915">
        <ele>50</ele>
        <time>2021-05-20T16:22:36+02:00</time>
      </trkpt>
      <trkpt lat="46.51764" lon="-0.77833">
        <ele>45</ele>
        <time>2021-05-20T16:22:41+02:00</time>
      </trkpt>
      <trkpt lat="46.51746" lon="-0.778">
        <ele>44</ele>
        <time>2021-05-20T16:22:46+02:00</time>
      </trkpt>
      <trkpt lat="46.51726" lon="-0.77822">
        <ele>46</ele>
        <time>2021-05-20T16:22:51+02:00</time>
      </trkpt>
      <trkpt lat="46.51698" lon="-0.77867">
        <ele>52</ele>
        <time>2021-05-20T16:22:56+02:00</time>
      </trkpt>
      <trkpt lat="46.51659" lon="-0.77869">
        <ele>55</ele>
        <time>2021-05-20T16:23:01+02:00</time>
      </trkpt>
      <trkpt lat="46.51624" lon="-0.77862">
        <ele>58</ele>
        <time>2021-05-20T16:23:06+02:00</time>
      </trkpt>
      <trkpt lat="46.51568" lon="-0.77797">
        <ele>55</ele>
        <time>2021-05-20T16:23:11+02:00</time>
      </trkpt>
      <trkpt lat="46.51546" lon="-0.77702">
        <ele>53</ele>
        <time>2021-05-20T16:23:16+02:00</time>
      </trkpt>
      <trkpt lat="46.51549" lon="-0.77607">
        <ele>52</ele>
        <time>2021-05-20T16:23:21+02:00</time>
      </trkpt>
      <trkpt lat="46.51563" lon="-0.77558">
        <ele>48</ele>
        <time>2021-05-20T16:23:26+02:00</time>
      </trkpt>
      <trkpt lat="46.51572" lon="-0.77459">
        <ele>45</ele>
        <time>2021-05-20T16:23:31+02:00</time>
      </trkpt>
      <trkpt lat="46.51562" lon="-0.77409">
        <ele>50</ele>
        <time>2021-05-20T16:23:36+02:00</time>
      </trkpt>
      <trkpt lat="46.51577" lon="-0.77318">
        <ele>58</ele>
        <time>2021-05-20T16:23:41+02:00</time>
      </trkpt>
      <trkpt lat="46.51604" lon="-0.77265">
        <ele>56</ele>
        <time>2021-05-20T16:23:46+02:00</time>
      </trkpt>
      <trkpt lat="46.51642" lon="-0.77233">
        <ele>48</ele>
        <time>2021-05-20T16:23:51+02:00</time>
      </trkpt>
      <trkpt lat="46.51681" lon="-0.77239">
        <ele>42</ele>
        <time>2021-05-20T16:23:56+02:00</time>
      </trkpt>
      <trkpt lat="46.51711" lon="-0.7724">
        <ele>41</ele>
        <time>2021-05-20T16:24:01+02:00</time>
      </trkpt>
      <trkpt lat="46.51733" lon="-0.77239">
        <ele>41</ele>
        <time>2021-05-20T16:24:06+02:00</time>
      </trkpt>
      <trkpt lat="46.51737" lon="-0.77217">
        <ele>40</ele>
        <time>2021-05-20T16:24:11+02:00</time>
      </trkpt>
      <trkpt lat="46.51732" lon="-0.77201">
        <ele>40</ele>
        <time>2021-05-20T16:24:16+02:00</time>
      </trkpt>
      <trkpt lat="46.51698" lon="-0.77192">
        <ele>41</ele>
        <time>2021-05-20T16:24:21+02:00</time>
      </trkpt>
      <trkpt lat="46.51653" lon="-0.77192">
        <ele>45</ele>
        <time>2021-05-20T16:24:26+02:00</time>
      </trkpt>
      <trkpt lat="46.51622" lon="-0.77138">
        <ele>49</ele>
        <time>2021-05-20T16:24:31+02:00</time>
      </trkpt>
      <trkpt lat="46.51597" lon="-0.77074">
        <ele>40</ele>
        <time>2021-05-20T16:24:36+02:00</time>
      </trkpt>
      <trkpt lat="46.51584" lon="-0.7702">
        <ele>40</ele>
        <time>2021-05-20T16:24:41+02:00</time>
      </trkpt>
      <trkpt lat="46.5158" lon="-0.76923">
        <ele>53</ele>
        <time>2021-05-20T16:24:46+02:00</time>
      </trkpt>
      <trkpt lat="46.51602" lon="-0.76831">
        <ele>50</ele>
        <time>2021-05-20T16:24:51+02:00</time>
      </trkpt>
      <trkpt lat="46.51602" lon="-0.76796">
        <ele>47</ele>
        <time>2021-05-20T16:24:56+02:00</time>
      </trkpt>
      <trkpt lat="46.51591" lon="-0.76769">
        <ele>46</ele>
        <time>2021-05-20T16:25:01+02:00</time>
      </trkpt>
      <trkpt lat="46.51567" lon="-0.76762">
        <ele>50</ele>
        <time>2021-05-20T16:25:06+02:00</time>
      </trkpt>
      <trkpt lat="46.51551" lon="-0.76735">
        <ele>51</ele>
        <time>2021-05-20T16:25:11+02:00</time>
      </trkpt>
      <trkpt lat="46.51514" lon="-0.76696">
        <ele>54</ele>
        <time>2021-05-20T16:25:16+02:00</time>
      </trkpt>
      <trkpt lat="46.51487" lon="-0.76687">
        <ele>58</ele>
        <time>2021-05-20T16:25:21+02:00</time>
      </trkpt>
      <trkpt lat="46.51489" lon="-0.76664">
        <ele>55</ele>
        <time>2021-05-20T16:25:26+02:00</time>
      </trkpt>
      <trkpt lat="46.51504" lon="-0.76644">
        <ele>53</ele>
        <time>2021-05-20T16:25:31+02:00</time>
      </trkpt>
      <trkpt lat="46.51517" lon="-0.76571">
        <ele>54</ele>
        <time>2021-05-20T16:25:36+02:00</time>
      </trkpt>
      <trkpt lat="46.5151" lon="-0.76524">
        <ele>57</ele>
        <time>2021-05-20T16:25:41+02:00</time>
      </trkpt>
      <trkpt lat="46.51525" lon="-0.765">
        <ele>54</ele>
        <time>2021-05-20T16:25:46+02:00</time>
      </trkpt>
      <trkpt lat="46.51565" lon="-0.76487">
        <ele>45</ele>
        <time>2021-05-20T16:25:51+02:00</time>
      </trkpt>
      <trkpt lat="46.5158" lon="-0.76444">
        <ele>41</ele>
        <time>2021-05-20T16:25:56+02:00</time>
      </trkpt>
      <trkpt lat="46.51621" lon="-0.76371">
        <ele>48</ele>
        <time>2021-05-20T16:26:01+02:00</time>
      </trkpt>
      <trkpt lat="46.51687" lon="-0.76293">
        <ele>46</ele>
        <time>2021-05-20T16:26:06+02:00</time>
      </trkpt>
      <trkpt lat="46.51777" lon="-0.76206">
        <ele>49</ele>
        <time>2021-05-20T16:26:11+02:00</time>
      </trkpt>
      <trkpt lat="46.51823" lon="-0.76226">
        <ele>44</ele>
        <time>2021-05-20T16:26:16+02:00</time>
      </trkpt>
      <trkpt lat="46.51869" lon="-0.76258">
        <ele>40</ele>
        <time>2021-05-20T16:26:21+02:00</time>
      </trkpt>
      <trkpt lat="46.51894" lon="-0.76219">
        <ele>44</ele>
        <time>2021-05-20T16:26:26+02:00</time>
      </trkpt>
      <trkpt lat="46.51932" lon="-0.76204">
        <ele>45</ele>
        <time>2021-05-20T16:26:31+02:00</time>
      </trkpt>
      <trkpt lat="46.52006" lon="-0.76161">
        <ele>41</ele>
        <time>2021-05-20T16:26:36+02:00</time>
      </trkpt>
      <trkpt lat="46.52087" lon="-0.76099">
        <ele>42</ele>
        <time>2021-05-20T16:26:41+02:00</time>
      </trkpt>
      <trkpt lat="46.52095" lon="-0.7597">
        <ele>44</ele>
        <time>2021-05-20T16:26:46+02:00</time>
      </trkpt>
      <trkpt lat="46.52012" lon="-0.75869">
        <ele>48</ele>
        <time>2021-05-20T16:26:51+02:00</time>
      </trkpt>
      <trkpt lat="46.51953" lon="-0.75781">
        <ele>45</ele>
        <time>2021-05-20T16:26:56+02:00</time>
      </trkpt>
      <trkpt lat="46.51892" lon="-0.75745">
        <ele>43</ele>
        <time>2021-05-20T16:27:01+02:00</time>
      </trkpt>
      <trkpt lat="46.51789" lon="-0.75757">
        <ele>50</ele>
        <time>2021-05-20T16:27:06+02:00</time>
      </trkpt>
      <trkpt lat="46.51678" lon="-0.7572">
        <ele>47</ele>
        <time>2021-05-20T16:27:11+02:00</time>
      </trkpt>
      <trkpt lat="46.51609" lon="-0.75757">
        <ele>46</ele>
        <time>2021-05-20T16:27:16+02:00</time>
      </trkpt>
      <trkpt lat="46.51549" lon="-0.75845">
        <ele>57</ele>
        <time>2021-05-20T16:27:21+02:00</time>
      </trkpt>
      <trkpt lat="46.51454" lon="-0.75845">
        <ele>63</ele>
        <time>2021-05-20T16:27:26+02:00</time>
      </trkpt>
      <trkpt lat="46.51375" lon="-0.75762">
        <ele>63</ele>
        <time>2021-05-20T16:27:31+02:00</time>
      </trkpt>
      <trkpt lat="46.51389" lon="-0.75654">
        <ele>56</ele>
        <time>2021-05-20T16:27:36+02:00</time>
      </trkpt>
      <trkpt lat="46.51389" lon="-0.75512">
        <ele>56</ele>
        <time>2021-05-20T16:27:41+02:00</time>
      </trkpt>
      <trkpt lat="46.51385" lon="-0.75361">
        <ele>47</ele>
        <time>2021-05-20T16:27:46+02:00</time>
      </trkpt>
      <trkpt lat="46.51352" lon="-0.75315">
        <ele>47</ele>
        <time>2021-05-20T16:27:51+02:00</time>
      </trkpt>
      <trkpt lat="46.51297" lon="-0.7533">
        <ele>47</ele>
        <time>2021-05-20T16:27:56+02:00</time>
      </trkpt>
      <trkpt lat="46.51213" lon="-0.7539">
        <ele>51</ele>
        <time>2021-05-20T16:28:01+02:00</time>
      </trkpt>
      <trkpt lat="46.51169" lon="-0.75478">
        <ele>60</ele>
        <time>2021-05-20T16:28:06+02:00</time>
      </trkpt>
      <trkpt lat="46.51134" lon="-0.75418">
        <ele>53</ele>
        <time>2021-05-20T16:28:11+02:00</time>
      </trkpt>
      <trkpt lat="46.51088" lon="-0.75394">
        <ele>54</ele>
        <time>2021-05-20T16:28:16+02:00</time>
      </trkpt>
      <trkpt lat="46.51027" lon="-0.7539">
        <ele>60</ele>
        <time>2021-05-20T16:28:21+02:00</time>
      </trkpt>
      <trkpt lat="46.5098" lon="-0.75354">
        <ele>61</ele>
        <time>2021-05-20T16:28:26+02:00</time>
      </trkpt>
      <trkpt lat="46.50934" lon="-0.75268">
        <ele>61</ele>
        <time>2021-05-20T16:28:31+02:00</time>
      </trkpt>
      <trkpt lat="46.50909" lon="-0.75173">
        <ele>58</ele>
        <time>2021-05-20T16:28:36+02:00</time>
      </trkpt>
      <trkpt lat="46.509" lon="-0.75036">
        <ele>55</ele>
        <time>2021-05-20T16:28:41+02:00</time>
      </trkpt>
      <trkpt lat="46.50932" lon="-0.74889">
        <ele>48</ele>
        <time>2021-05-20T16:28:46+02:00</time>
      </trkpt>
      <trkpt lat="46.50838" lon="-0.74899">
        <ele>52</ele>
        <time>2021-05-20T16:28:51+02:00</time>
      </trkpt>
      <trkpt lat="46.50761" lon="-0.74929">
        <ele>60</ele>
        <time>2021-05-20T16:28:56+02:00</time>
      </trkpt>
      <trkpt lat="46.50566" lon="-0.74937">
        <ele>59</ele>
        <time>2021-05-20T16:29:01+02:00</time>
      </trkpt>
      <trkpt lat="46.50453" lon="-0.74912">
        <ele>65</ele>
        <time>2021-05-20T16:29:06+02:00</time>
      </trkpt>
      <trkpt lat="46.5038" lon="-0.74791">
        <ele>54</ele>
        <time>2021-05-20T16:29:11+02:00</time>
      </trkpt>
      <trkpt lat="46.50341" lon="-0.74684">
        <ele>49</ele>
        <time>2021-05-20T16:29:16+02:00</time>
      </trkpt>
      <trkpt lat="46.50301" lon="-0.74701">
        <ele>51</ele>
        <time>2021-05-20T16:29:21+02:00</time>
      </trkpt>
      <trkpt lat="46.50269" lon="-0.74756">
        <ele>53</ele>
        <time>2021-05-20T16:29:26+02:00</time>
      </trkpt>
      <trkpt lat="46.50255" lon="-0.7482">
        <ele>53</ele>
        <time>2021-05-20T16:29:31+02:00</time>
      </trkpt>
      <trkpt lat="46.50225" lon="-0.74875">
        <ele>56</ele>
        <time>2021-05-20T16:29:36+02:00</time>
      </trkpt>
      <trkpt lat="46.50239" lon="-0.74942">
        <ele>59</ele>
        <time>2021-05-20T16:29:41+02:00</time>
      </trkpt>
      <trkpt lat="46.50234" lon="-0.75021">
        <ele>63</ele>
        <time>2021-05-20T16:29:46+02:00</time>
      </trkpt>
      <trkpt lat="46.50205" lon="-0.7509">
        <ele>64</ele>
        <time>2021-05-20T16:29:51+02:00</time>
      </trkpt>
      <trkpt lat="46.50205" lon="-0.75163">
        <ele>64</ele>
        <time>2021-05-20T16:29:56+02:00</time>
      </trkpt>
      <trkpt lat="46.50174" lon="-0.75277">
        <ele>66</ele>
        <time>2021-05-20T16:30:01+02:00</time>
      </trkpt>
      <trkpt lat="46.50118" lon="-0.75307">
        <ele>67</ele>
        <time>2021-05-20T16:30:06+02:00</time>
      </trkpt>
      <trkpt lat="46.50063" lon="-0.75425">
        <ele>71</ele>
        <time>2021-05-20T16:30:11+02:00</time>
      </trkpt>
      <trkpt lat="46.5002" lon="-0.75564">
        <ele>77</ele>
        <time>2021-05-20T16:30:16+02:00</time>
      </trkpt>
      <trkpt lat="46.49986" lon="-0.75622">
        <ele>80</ele>
        <time>2021-05-20T16:30:21+02:00</time>
      </trkpt>
      <trkpt lat="46.49932" lon="-0.75871">
        <ele>92</ele>
        <time>2021-05-20T16:30:26+02:00</time>
      </trkpt>
      <trkpt lat="46.49838" lon="-0.75916">
        <ele>93</ele>
        <time>2021-05-20T16:30:31+02:00</time>
      </trkpt>
      <trkpt lat="46.49812" lon="-0.75918">
        <ele>95</ele>
        <time>2021-05-20T16:30:36+02:00</time>
      </trkpt>
      <trkpt lat="46.49807" lon="-0.75957">
        <ele>95</ele>
        <time>2021-05-20T16:30:41+02:00</time>
      </trkpt>
      <trkpt lat="46.49793" lon="-0.76008">
        <ele>98</ele>
        <time>2021-05-20T16:30:46+02:00</time>
      </trkpt>
      <trkpt lat="46.49731" lon="-0.76036">
        <ele>105</ele>
        <time>2021-05-20T16:30:51+02:00</time>
      </trkpt>
      <trkpt lat="46.49668" lon="-0.76041">
        <ele>103</ele>
        <time>2021-05-20T16:30:56+02:00</time>
      </trkpt>
      <trkpt lat="46.49623" lon="-0.7606">
        <ele>102</ele>
        <time>2021-05-20T16:31:01+02:00</time>
      </trkpt>
      <trkpt lat="46.49595" lon="-0.76058">
        <ele>103</ele>
        <time>2021-05-20T16:31:06+02:00</time>
      </trkpt>
      <trkpt lat="46.49577" lon="-0.76039">
        <ele>103</ele>
        <time>2021-05-20T16:31:11+02:00</time>
      </trkpt>
      <trkpt lat="46.49507" lon="-0.76054">
        <ele>100</ele>
        <time>2021-05-20T16:31:16+02:00</time>
      </trkpt>
      <trkpt lat="46.49447" lon="-0.76062">
        <ele>98</ele>
        <time>2021-05-20T16:31:21+02:00</time>
      </trkpt>
      <trkpt lat="46.49329" lon="-0.76058">
        <ele>96</ele>
        <time>2021-05-20T16:31:26+02:00</time>
      </trkpt>
      <trkpt lat="46.49219" lon="-0.76044">
        <ele>96</ele>
        <time>2021-05-20T16:31:31+02:00</time>
      </trkpt>
      <trkpt lat="46.49164" lon="-0.76051">
        <ele>95</ele>
        <time>2021-05-20T16:31:36+02:00</time>
      </trkpt>
      <trkpt lat="46.49112" lon="-0.76049">
        <ele>91</ele>
        <time>2021-05-20T16:31:41+02:00</time>
      </trkpt>
      <trkpt lat="46.49074" lon="-0.76062">
        <ele>89</ele>
        <time>2021-05-20T16:31:46+02:00</time>
      </trkpt>
      <trkpt lat="46.4904" lon="-0.7608">
        <ele>87</ele>
        <time>2021-05-20T16:31:51+02:00</time>
      </trkpt>
      <trkpt lat="46.48983" lon="-0.76105">
        <ele>85</ele>
        <time>2021-05-20T16:31:56+02:00</time>
      </trkpt>
      <trkpt lat="46.48908" lon="-0.76228">
        <ele>81</ele>
        <time>2021-05-20T16:32:01+02:00</time>
      </trkpt>
      <trkpt lat="46.49112" lon="-0.76363">
        <ele>88</ele>
        <time>2021-05-20T16:32:06+02:00</time>
      </trkpt>
      <trkpt lat="46.49154" lon="-0.76392">
        <ele>86</ele>
        <time>2021-05-20T16:32:11+02:00</time>
      </trkpt>
      <trkpt lat="46.4923" lon="-0.76482">
        <ele>84</ele>
        <time>2021-05-20T16:32:16+02:00</time>
      </trkpt>
      <trkpt lat="46.49261" lon="-0.76525">
        <ele>83</ele>
        <time>2021-05-20T16:32:21+02:00</time>
      </trkpt>
      <trkpt lat="46.49298" lon="-0.76566">
        <ele>81</ele>
        <time>2021-05-20T16:32:26+02:00</time>
      </trkpt>
      <trkpt lat="46.4928" lon="-0.76614">
        <ele>79</ele>
        <time>2021-05-20T16:32:31+02:00</time>
      </trkpt>
      <trkpt lat="46.49267" lon="-0.76644">
        <ele>78</ele>
        <time>2021-05-20T16:32:36+02:00</time>
      </trkpt>
      <trkpt lat="46.4927" lon="-0.76672">
        <ele>76</ele>
        <time>2021-05-20T16:32:41+02:00</time>
      </trkpt>
      <trkpt lat="46.49284" lon="-0.76734">
        <ele>74</ele>
        <time>2021-05-20T16:32:46+02:00</time>
      </trkpt>
      <trkpt lat="46.49306" lon="-0.76805">
        <ele>70</ele>
        <time>2021-05-20T16:32:51+02:00</time>
      </trkpt>
      <trkpt lat="46.49333" lon="-0.76835">
        <ele>70</ele>
        <time>2021-05-20T16:32:56+02:00</time>
      </trkpt>
      <trkpt lat="46.49375" lon="-0.76866">
        <ele>75</ele>
        <time>2021-05-20T16:33:01+02:00</time>
      </trkpt>
      <trkpt lat="46.49425" lon="-0.76924">
        <ele>81</ele>
        <time>2021-05-20T16:33:06+02:00</time>
      </trkpt>
      <trkpt lat="46.49451" lon="-0.76973">
        <ele>83</ele>
        <time>2021-05-20T16:33:11+02:00</time>
      </trkpt>
      <trkpt lat="46.49477" lon="-0.77034">
        <ele>85</ele>
        <time>2021-05-20T16:33:16+02:00</time>
      </trkpt>
      <trkpt lat="46.49474" lon="-0.7713">
        <ele>84</ele>
        <time>2021-05-20T16:33:21+02:00</time>
      </trkpt>
      <trkpt lat="46.49497" lon="-0.77234">
        <ele>84</ele>
        <time>2021-05-20T16:33:26+02:00</time>
      </trkpt>
      <trkpt lat="46.49502" lon="-0.77292">
        <ele>83</ele>
        <time>2021-05-20T16:33:31+02:00</time>
      </trkpt>
      <trkpt lat="46.49505" lon="-0.77368">
        <ele>82</ele>
        <time>2021-05-20T16:33:36+02:00</time>
      </trkpt>
      <trkpt lat="46.4952" lon="-0.77389">
        <ele>82</ele>
        <time>2021-05-20T16:33:41+02:00</time>
      </trkpt>
      <trkpt lat="46.4954" lon="-0.77407">
        <ele>81</ele>
        <time>2021-05-20T16:33:46+02:00</time>
      </trkpt>
      <trkpt lat="46.49629" lon="-0.77421">
        <ele>80</ele>
        <time>2021-05-20T16:33:51+02:00</time>
      </trkpt>
      <trkpt lat="46.49607" lon="-0.77514">
        <ele>80</ele>
        <time>2021-05-20T16:33:56+02:00</time>
      </trkpt>
      <trkpt lat="46.496" lon="-0.77612">
        <ele>81</ele>
        <time>2021-05-20T16:34:01+02:00</time>
      </trkpt>
      <trkpt lat="46.49601" lon="-0.77711">
        <ele>85</ele>
        <time>2021-05-20T16:34:06+02:00</time>
      </trkpt>
      <trkpt lat="46.49588" lon="-0.77808">
        <ele>85</ele>
        <time>2021-05-20T16:34:11+02:00</time>
      </trkpt>
      <trkpt lat="46.49564" lon="-0.77905">
        <ele>82</ele>
        <time>2021-05-20T16:34:16+02:00</time>
      </trkpt>
      <trkpt lat="46.49542" lon="-0.78004">
        <ele>79</ele>
        <time>2021-05-20T16:34:21+02:00</time>
      </trkpt>
      <trkpt lat="46.49518" lon="-0.78045">
        <ele>77</ele>
        <time>2021-05-20T16:34:26+02:00</time>
      </trkpt>
      <trkpt lat="46.49484" lon="-0.78093">
        <ele>76</ele>
        <time>2021-05-20T16:34:31+02:00</time>
      </trkpt>
      <trkpt lat="46.49465" lon="-0.78155">
        <ele>75</ele>
        <time>2021-05-20T16:34:36+02:00</time>
      </trkpt>
      <trkpt lat="46.49435" lon="-0.78196">
        <ele>74</ele>
        <time>2021-05-20T16:34:41+02:00</time>
      </trkpt>
      <trkpt lat="46.49471" lon="-0.78239">
        <ele>76</ele>
        <time>2021-05-20T16:34:46+02:00</time>
      </trkpt>
      <trkpt lat="46.49491" lon="-0.78287">
        <ele>76</ele>
        <time>2021-05-20T16:34:51+02:00</time>
      </trkpt>
      <trkpt lat="46.49499" lon="-0.78321">
        <ele>76</ele>
        <time>2021-05-20T16:34:56+02:00</time>
      </trkpt>
      <trkpt lat="46.49512" lon="-0.78347">
        <ele>76</ele>
        <time>2021-05-20T16:35:01+02:00</time>
      </trkpt>
      <trkpt lat="46.49524" lon="-0.78359">
        <ele>75</ele>
        <time>2021-05-20T16:35:06+02:00</time>
      </trkpt>
      <trkpt lat="46.49581" lon="-0.78305">
        <ele>75</ele>
        <time>2021-05-20T16:35:11+02:00</time>
      </trkpt>
      <trkpt lat="46.49615" lon="-0.78274">
        <ele>74</ele>
        <time>2021-05-20T16:35:16+02:00</time>
      </trkpt>
      <trkpt lat="46.49651" lon="-0.78256">
        <ele>74</ele>
        <time>2021-05-20T16:35:21+02:00</time>
      </trkpt>
      <trkpt lat="46.49705" lon="-0.78304">
        <ele>72</ele>
        <time>2021-05-20T16:35:26+02:00</time>
      </trkpt>
      <trkpt lat="46.49745" lon="-0.78346">
        <ele>70</ele>
        <time>2021-05-20T16:35:31+02:00</time>
      </trkpt>
      <trkpt lat="46.49808" lon="-0.7839">
        <ele>68</ele>
        <time>2021-05-20T16:35:36+02:00</time>
      </trkpt>
      <trkpt lat="46.49877" lon="-0.78453">
        <ele>62</ele>
        <time>2021-05-20T16:35:41+02:00</time>
      </trkpt>
      <trkpt lat="46.49934" lon="-0.78521">
        <ele>56</ele>
        <time>2021-05-20T16:35:46+02:00</time>
      </trkpt>
      <trkpt lat="46.50009" lon="-0.78554">
        <ele>47</ele>
        <time>2021-05-20T16:35:51+02:00</time>
      </trkpt>
      <trkpt lat="46.50077" lon="-0.78601">
        <ele>34</ele>
        <time>2021-05-20T16:35:56+02:00</time>
      </trkpt>
      <trkpt lat="46.50075" lon="-0.78559">
        <ele>29</ele>
        <time>2021-05-20T16:36:01+02:00</time>
      </trkpt>
      <trkpt lat="46.50064" lon="-0.78525">
        <ele>29</ele>
        <time>2021-05-20T16:36:06+02:00</time>
      </trkpt>
      <trkpt lat="46.50047" lon="-0.78478">
        <ele>30</ele>
        <time>2021-05-20T16:36:11+02:00</time>
      </trkpt>
      <trkpt lat="46.50001" lon="-0.78417">
        <ele>30</ele>
        <time>2021-05-20T16:36:16+02:00</time>
      </trkpt>
      <trkpt lat="46.49966" lon="-0.78353">
        <ele>38</ele>
        <time>2021-05-20T16:36:21+02:00</time>
      </trkpt>
      <trkpt lat="46.50005" lon="-0.78317">
        <ele>20</ele>
        <time>2021-05-20T16:36:26+02:00</time>
      </trkpt>
      <trkpt lat="46.50044" lon="-0.78343">
        <ele>22</ele>
        <time>2021-05-20T16:36:31+02:00</time>
      </trkpt>
      <trkpt lat="46.50129" lon="-0.7847">
        <ele>27</ele>
        <time>2021-05-20T16:36:36+02:00</time>
      </trkpt>
      <trkpt lat="46.50208" lon="-0.78616">
        <ele>29</ele>
        <time>2021-05-20T16:36:41+02:00</time>
      </trkpt>
      <trkpt lat="46.5025" lon="-0.78788">
        <ele>27</ele>
        <time>2021-05-20T16:36:46+02:00</time>
      </trkpt>
      <trkpt lat="46.50304" lon="-0.78954">
        <ele>31</ele>
        <time>2021-05-20T16:36:51+02:00</time>
      </trkpt>
      <trkpt lat="46.50345" lon="-0.79083">
        <ele>29</ele>
        <time>2021-05-20T16:36:56+02:00</time>
      </trkpt>
      <trkpt lat="46.50366" lon="-0.79215">
        <ele>31</ele>
        <time>2021-05-20T16:37:01+02:00</time>
      </trkpt>
      <trkpt lat="46.50374" lon="-0.79275">
        <ele>34</ele>
        <time>2021-05-20T16:37:06+02:00</time>
      </trkpt>
      <trkpt lat="46.50365" lon="-0.79331">
        <ele>34</ele>
        <time>2021-05-20T16:37:11+02:00</time>
      </trkpt>
      <trkpt lat="46.50341" lon="-0.7936">
        <ele>36</ele>
        <time>2021-05-20T16:37:16+02:00</time>
      </trkpt>
      <trkpt lat="46.50308" lon="-0.79367">
        <ele>34</ele>
        <time>2021-05-20T16:37:21+02:00</time>
      </trkpt>
      <trkpt lat="46.50278" lon="-0.79349">
        <ele>27</ele>
        <time>2021-05-20T16:37:26+02:00</time>
      </trkpt>
      <trkpt lat="46.50167" lon="-0.79391">
        <ele>25</ele>
        <time>2021-05-20T16:37:31+02:00</time>
      </trkpt>
      <trkpt lat="46.50106" lon="-0.79417">
        <ele>22</ele>
        <time>2021-05-20T16:37:36+02:00</time>
      </trkpt>
      <trkpt lat="46.5004" lon="-0.79467">
        <ele>23</ele>
        <time>2021-05-20T16:37:41+02:00</time>
      </trkpt>
      <trkpt lat="46.5001" lon="-0.79515">
        <ele>21</ele>
        <time>2021-05-20T16:37:46+02:00</time>
      </trkpt>
      <trkpt lat="46.50044" lon="-0.79625">
        <ele>34</ele>
        <time>2021-05-20T16:37:51+02:00</time>
      </trkpt>
      <trkpt lat="46.50135" lon="-0.79641">
        <ele>45</ele>
        <time>2021-05-20T16:37:56+02:00</time>
      </trkpt>
      <trkpt lat="46.50202" lon="-0.79606">
        <ele>55</ele>
        <time>2021-05-20T16:38:01+02:00</time>
      </trkpt>
      <trkpt lat="46.50245" lon="-0.79602">
        <ele>60</ele>
        <time>2021-05-20T16:38:06+02:00</time>
      </trkpt>
      <trkpt lat="46.50329" lon="-0.79562">
        <ele>69</ele>
        <time>2021-05-20T16:38:11+02:00</time>
      </trkpt>
      <trkpt lat="46.50426" lon="-0.79539">
        <ele>76</ele>
        <time>2021-05-20T16:38:16+02:00</time>
      </trkpt>
      <trkpt lat="46.50485" lon="-0.79531">
        <ele>81</ele>
        <time>2021-05-20T16:38:21+02:00</time>
      </trkpt>
      <trkpt lat="46.50538" lon="-0.7952">
        <ele>85</ele>
        <time>2021-05-20T16:38:26+02:00</time>
      </trkpt>
      <trkpt lat="46.50591" lon="-0.79509">
        <ele>89</ele>
        <time>2021-05-20T16:38:31+02:00</time>
      </trkpt>
      <trkpt lat="46.50623" lon="-0.79497">
        <ele>89</ele>
        <time>2021-05-20T16:38:36+02:00</time>
      </trkpt>
      <trkpt lat="46.50651" lon="-0.79487">
        <ele>89</ele>
        <time>2021-05-20T16:38:41+02:00</time>
      </trkpt>
      <trkpt lat="46.50781" lon="-0.79438">
        <ele>87</ele>
        <time>2021-05-20T16:38:46+02:00</time>
      </trkpt>
      <trkpt lat="46.51248" lon="-0.79253">
        <ele>80</ele>
        <time>2021-05-20T16:38:51+02:00</time>
      </trkpt>
    </trkseg>
  </trk>
</gpx>